sensor_id;sensor_type;location;lat;lon;timestamp;temperature;humidity
8152;DHT22;4117;53.622;9.958;2022-12-07T00:00:20;2.90;99.90
8152;DHT22;4117;53.622;9.958;2022-12-07T00:02:47;2.90;99.90
8152;DHT22;4117;53.622;9.958;2022-12-07T00:05:14;3.00;99.90
8152;DHT22;4117;53.622;9.958;2022-12-07T00:07:42;2.90;99.90
8152;DHT22;4117;53.622;9.958;2022-12-07T00:10:09;2.90;99.90
8152;DHT22;4117;53.622;9.958;2022-12-07T00:12:36;2.90;99.90
8152;DHT22;4117;53.622;9.958;2022-12-07T00:15:03;3.00;99.90
8152;DHT22;4117;53.622;9.958;2022-12-07T00:17:30;2.90;99.90
8152;DHT22;4117;53.622;9.958;2022-12-07T00:19:59;3.00;99.90
8152;DHT22;4117;53.622;9.958;2022-12-07T00:22:26;3.00;99.90
8152;DHT22;4117;53.622;9.958;2022-12-07T00:24:54;3.00;99.90
8152;DHT22;4117;53.622;9.958;2022-12-07T00:27:21;2.90;99.90
8152;DHT22;4117;53.622;9.958;2022-12-07T00:29:48;3.00;99.90
8152;DHT22;4117;53.622;9.958;2022-12-07T00:32:14;3.00;99.90
8152;DHT22;4117;53.622;9.958;2022-12-07T00:34:41;3.00;99.90
8152;DHT22;4117;53.622;9.958;2022-12-07T00:37:08;3.00;99.90
8152;DHT22;4117;53.622;9.958;2022-12-07T00:39:35;3.00;99.90
8152;DHT22;4117;53.622;9.958;2022-12-07T00:42:03;3.00;99.90
8152;DHT22;4117;53.622;9.958;2022-12-07T00:44:30;3.00;99.90
8152;DHT22;4117;53.622;9.958;2022-12-07T00:46:57;3.00;99.90
8152;DHT22;4117;53.622;9.958;2022-12-07T00:49:24;3.00;99.90
8152;DHT22;4117;53.622;9.958;2022-12-07T00:51:51;3.00;99.90
8152;DHT22;4117;53.622;9.958;2022-12-07T00:54:18;3.00;99.90
8152;DHT22;4117;53.622;9.958;2022-12-07T00:56:44;3.00;99.90
8152;DHT22;4117;53.622;9.958;2022-12-07T00:59:13;3.00;99.90
8152;DHT22;4117;53.622;9.958;2022-12-07T01:01:41;3.00;99.90
8152;DHT22;4117;53.622;9.958;2022-12-07T01:04:08;3.00;99.90
8152;DHT22;4117;53.622;9.958;2022-12-07T01:06:35;3.10;99.90
8152;DHT22;4117;53.622;9.958;2022-12-07T01:09:02;3.10;99.90
8152;DHT22;4117;53.622;9.958;2022-12-07T01:11:30;3.10;99.90
8152;DHT22;4117;53.622;9.958;2022-12-07T01:13:59;3.10;99.90
8152;DHT22;4117;53.622;9.958;2022-12-07T01:16:29;3.10;99.90
8152;DHT22;4117;53.622;9.958;2022-12-07T01:18:57;3.10;99.90
8152;DHT22;4117;53.622;9.958;2022-12-07T01:21:26;3.10;99.90
8152;DHT22;4117;53.622;9.958;2022-12-07T01:23:53;3.10;99.90
8152;DHT22;4117;53.622;9.958;2022-12-07T01:26:22;3.10;99.90
8152;DHT22;4117;53.622;9.958;2022-12-07T01:28:50;3.10;99.90
8152;DHT22;4117;53.622;9.958;2022-12-07T01:31:19;3.10;99.90
8152;DHT22;4117;53.622;9.958;2022-12-07T01:33:49;3.10;99.90
8152;DHT22;4117;53.622;9.958;2022-12-07T01:36:18;3.10;99.90
8152;DHT22;4117;53.622;9.958;2022-12-07T01:38:47;3.10;99.90
8152;DHT22;4117;53.622;9.958;2022-12-07T01:41:17;3.10;99.90
8152;DHT22;4117;53.622;9.958;2022-12-07T01:44:08;3.10;99.90
8152;DHT22;4117;53.622;9.958;2022-12-07T01:46:36;3.10;99.90
8152;DHT22;4117;53.622;9.958;2022-12-07T01:49:05;3.10;99.90
8152;DHT22;4117;53.622;9.958;2022-12-07T01:51:33;3.10;99.90
8152;DHT22;4117;53.622;9.958;2022-12-07T01:54:01;3.00;99.90
8152;DHT22;4117;53.622;9.958;2022-12-07T01:56:29;3.00;99.90
8152;DHT22;4117;53.622;9.958;2022-12-07T01:58:56;3.00;99.90
8152;DHT22;4117;53.622;9.958;2022-12-07T02:01:25;3.00;99.90
8152;DHT22;4117;53.622;9.958;2022-12-07T02:03:52;3.00;99.90
8152;DHT22;4117;53.622;9.958;2022-12-07T02:06:23;3.00;99.90
8152;DHT22;4117;53.622;9.958;2022-12-07T02:08:51;3.00;99.90
8152;DHT22;4117;53.622;9.958;2022-12-07T02:11:19;2.90;99.90
8152;DHT22;4117;53.622;9.958;2022-12-07T02:13:46;2.90;99.90
8152;DHT22;4117;53.622;9.958;2022-12-07T02:16:24;2.90;99.90
8152;DHT22;4117;53.622;9.958;2022-12-07T02:19:18;2.90;99.90
8152;DHT22;4117;53.622;9.958;2022-12-07T02:21:54;2.90;99.90
8152;DHT22;4117;53.622;9.958;2022-12-07T02:24:32;2.90;99.90
8152;DHT22;4117;53.622;9.958;2022-12-07T02:30:06;2.90;99.90
8152;DHT22;4117;53.622;9.958;2022-12-07T02:32:42;2.90;99.90
8152;DHT22;4117;53.622;9.958;2022-12-07T02:35:12;2.80;99.90
8152;DHT22;4117;53.622;9.958;2022-12-07T02:37:43;2.80;99.90
8152;DHT22;4117;53.622;9.958;2022-12-07T02:40:18;2.80;99.90
8152;DHT22;4117;53.622;9.958;2022-12-07T02:42:48;2.80;99.90
8152;DHT22;4117;53.622;9.958;2022-12-07T02:45:21;2.80;99.90
8152;DHT22;4117;53.622;9.958;2022-12-07T02:47:51;2.80;99.90
8152;DHT22;4117;53.622;9.958;2022-12-07T02:50:20;2.80;99.90
8152;DHT22;4117;53.622;9.958;2022-12-07T02:52:48;2.80;99.90
8152;DHT22;4117;53.622;9.958;2022-12-07T02:55:18;2.80;99.90
8152;DHT22;4117;53.622;9.958;2022-12-07T02:57:54;2.80;99.90
8152;DHT22;4117;53.622;9.958;2022-12-07T03:00:26;2.80;99.90
8152;DHT22;4117;53.622;9.958;2022-12-07T03:02:58;2.70;99.90
8152;DHT22;4117;53.622;9.958;2022-12-07T03:05:45;2.70;99.90
8152;DHT22;4117;53.622;9.958;2022-12-07T03:08:20;2.60;99.90
8152;DHT22;4117;53.622;9.958;2022-12-07T03:10:57;2.60;99.90
8152;DHT22;4117;53.622;9.958;2022-12-07T03:13:29;2.60;99.90
8152;DHT22;4117;53.622;9.958;2022-12-07T03:16:02;2.60;99.90
8152;DHT22;4117;53.622;9.958;2022-12-07T03:18:35;2.60;99.90
8152;DHT22;4117;53.622;9.958;2022-12-07T03:21:10;2.50;99.90
8152;DHT22;4117;53.622;9.958;2022-12-07T03:23:40;2.50;99.90
8152;DHT22;4117;53.622;9.958;2022-12-07T03:26:10;2.50;99.90
8152;DHT22;4117;53.622;9.958;2022-12-07T03:28:44;2.60;99.90
8152;DHT22;4117;53.622;9.958;2022-12-07T03:31:17;2.60;99.90
8152;DHT22;4117;53.622;9.958;2022-12-07T03:33:51;2.60;99.90
8152;DHT22;4117;53.622;9.958;2022-12-07T03:36:23;2.50;99.90
8152;DHT22;4117;53.622;9.958;2022-12-07T03:38:57;2.40;99.90
8152;DHT22;4117;53.622;9.958;2022-12-07T03:41:27;2.50;99.90
8152;DHT22;4117;53.622;9.958;2022-12-07T03:43:56;2.40;99.90
8152;DHT22;4117;53.622;9.958;2022-12-07T03:46:32;2.50;99.90
8152;DHT22;4117;53.622;9.958;2022-12-07T03:49:06;2.40;99.90
8152;DHT22;4117;53.622;9.958;2022-12-07T03:51:40;2.40;99.90
8152;DHT22;4117;53.622;9.958;2022-12-07T03:54:13;2.40;99.90
8152;DHT22;4117;53.622;9.958;2022-12-07T03:56:43;2.40;99.90
8152;DHT22;4117;53.622;9.958;2022-12-07T03:59:12;2.30;99.90
8152;DHT22;4117;53.622;9.958;2022-12-07T04:01:42;2.30;99.90
8152;DHT22;4117;53.622;9.958;2022-12-07T04:04:10;2.30;99.90
8152;DHT22;4117;53.622;9.958;2022-12-07T04:06:37;2.30;99.90
8152;DHT22;4117;53.622;9.958;2022-12-07T04:09:04;2.30;99.90
8152;DHT22;4117;53.622;9.958;2022-12-07T04:11:31;2.30;99.90
8152;DHT22;4117;53.622;9.958;2022-12-07T04:13:57;2.30;99.90
8152;DHT22;4117;53.622;9.958;2022-12-07T04:16:43;2.30;99.90
8152;DHT22;4117;53.622;9.958;2022-12-07T04:19:11;2.20;99.90
8152;DHT22;4117;53.622;9.958;2022-12-07T04:21:38;2.20;99.90
8152;DHT22;4117;53.622;9.958;2022-12-07T04:24:05;2.20;99.90
8152;DHT22;4117;53.622;9.958;2022-12-07T04:26:32;2.20;99.90
8152;DHT22;4117;53.622;9.958;2022-12-07T04:28:59;2.20;99.90
8152;DHT22;4117;53.622;9.958;2022-12-07T04:31:26;2.20;99.90
8152;DHT22;4117;53.622;9.958;2022-12-07T04:33:54;2.20;99.90
8152;DHT22;4117;53.622;9.958;2022-12-07T04:36:21;2.20;99.90
8152;DHT22;4117;53.622;9.958;2022-12-07T04:38:48;2.20;99.90
8152;DHT22;4117;53.622;9.958;2022-12-07T04:41:15;2.10;99.90
8152;DHT22;4117;53.622;9.958;2022-12-07T04:43:42;2.10;99.90
8152;DHT22;4117;53.622;9.958;2022-12-07T04:46:09;2.10;99.90
8152;DHT22;4117;53.622;9.958;2022-12-07T04:48:36;2.10;99.90
8152;DHT22;4117;53.622;9.958;2022-12-07T04:51:05;2.10;99.90
8152;DHT22;4117;53.622;9.958;2022-12-07T04:53:32;2.10;99.90
8152;DHT22;4117;53.622;9.958;2022-12-07T04:55:59;2.10;99.90
8152;DHT22;4117;53.622;9.958;2022-12-07T04:58:26;2.10;99.90
8152;DHT22;4117;53.622;9.958;2022-12-07T05:00:55;2.00;99.90
8152;DHT22;4117;53.622;9.958;2022-12-07T05:03:22;2.00;99.90
8152;DHT22;4117;53.622;9.958;2022-12-07T05:05:49;2.00;99.90
8152;DHT22;4117;53.622;9.958;2022-12-07T05:08:17;2.00;99.90
8152;DHT22;4117;53.622;9.958;2022-12-07T05:10:44;2.00;99.90
8152;DHT22;4117;53.622;9.958;2022-12-07T05:13:11;2.00;99.90
8152;DHT22;4117;53.622;9.958;2022-12-07T05:15:38;2.00;99.90
8152;DHT22;4117;53.622;9.958;2022-12-07T05:18:05;2.00;99.90
8152;DHT22;4117;53.622;9.958;2022-12-07T05:20:32;2.00;99.90
8152;DHT22;4117;53.622;9.958;2022-12-07T05:22:59;2.00;99.90
8152;DHT22;4117;53.622;9.958;2022-12-07T05:25:27;2.00;99.90
8152;DHT22;4117;53.622;9.958;2022-12-07T05:27:55;2.00;99.90
8152;DHT22;4117;53.622;9.958;2022-12-07T05:30:22;2.00;99.90
8152;DHT22;4117;53.622;9.958;2022-12-07T05:32:49;1.90;99.90
8152;DHT22;4117;53.622;9.958;2022-12-07T05:35:16;1.90;99.90
8152;DHT22;4117;53.622;9.958;2022-12-07T05:37:43;1.90;99.90
8152;DHT22;4117;53.622;9.958;2022-12-07T05:40:11;1.90;99.90
8152;DHT22;4117;53.622;9.958;2022-12-07T05:42:40;1.80;99.90
8152;DHT22;4117;53.622;9.958;2022-12-07T05:45:08;1.80;99.90
8152;DHT22;4117;53.622;9.958;2022-12-07T05:47:36;1.80;99.90
8152;DHT22;4117;53.622;9.958;2022-12-07T05:50:04;1.90;99.90
8152;DHT22;4117;53.622;9.958;2022-12-07T05:52:32;1.90;99.90
8152;DHT22;4117;53.622;9.958;2022-12-07T05:54:59;1.90;99.90
8152;DHT22;4117;53.622;9.958;2022-12-07T05:57:26;1.80;99.90
8152;DHT22;4117;53.622;9.958;2022-12-07T05:59:54;1.80;99.90
8152;DHT22;4117;53.622;9.958;2022-12-07T06:02:20;1.70;99.90
8152;DHT22;4117;53.622;9.958;2022-12-07T06:04:47;1.80;99.90
8152;DHT22;4117;53.622;9.958;2022-12-07T06:07:15;1.70;99.90
8152;DHT22;4117;53.622;9.958;2022-12-07T06:09:42;1.70;99.90
8152;DHT22;4117;53.622;9.958;2022-12-07T06:12:10;1.60;99.90
8152;DHT22;4117;53.622;9.958;2022-12-07T06:14:56;1.60;99.90
8152;DHT22;4117;53.622;9.958;2022-12-07T06:17:23;1.60;99.90
8152;DHT22;4117;53.622;9.958;2022-12-07T06:19:50;1.60;99.90
8152;DHT22;4117;53.622;9.958;2022-12-07T06:22:17;1.60;99.90
8152;DHT22;4117;53.622;9.958;2022-12-07T06:24:44;1.60;99.90
8152;DHT22;4117;53.622;9.958;2022-12-07T06:27:11;1.60;99.90
8152;DHT22;4117;53.622;9.958;2022-12-07T06:29:38;1.60;99.90
8152;DHT22;4117;53.622;9.958;2022-12-07T06:32:06;1.50;99.90
8152;DHT22;4117;53.622;9.958;2022-12-07T06:34:33;1.60;99.90
8152;DHT22;4117;53.622;9.958;2022-12-07T06:37:00;1.50;99.90
8152;DHT22;4117;53.622;9.958;2022-12-07T06:39:28;1.50;99.90
8152;DHT22;4117;53.622;9.958;2022-12-07T06:41:55;1.50;99.90
8152;DHT22;4117;53.622;9.958;2022-12-07T06:44:23;1.50;99.90
8152;DHT22;4117;53.622;9.958;2022-12-07T06:46:50;1.50;99.90
8152;DHT22;4117;53.622;9.958;2022-12-07T06:49:19;1.60;99.90
8152;DHT22;4117;53.622;9.958;2022-12-07T06:51:46;1.60;99.90
8152;DHT22;4117;53.622;9.958;2022-12-07T06:54:14;1.60;99.90
8152;DHT22;4117;53.622;9.958;2022-12-07T06:56:41;1.70;99.90
8152;DHT22;4117;53.622;9.958;2022-12-07T06:59:08;1.60;99.90
8152;DHT22;4117;53.622;9.958;2022-12-07T07:01:35;1.70;99.90
8152;DHT22;4117;53.622;9.958;2022-12-07T07:04:02;1.70;99.90
8152;DHT22;4117;53.622;9.958;2022-12-07T07:06:31;1.70;99.90
8152;DHT22;4117;53.622;9.958;2022-12-07T07:08:58;1.70;99.90
8152;DHT22;4117;53.622;9.958;2022-12-07T07:11:28;1.70;99.90
8152;DHT22;4117;53.622;9.958;2022-12-07T07:13:55;1.70;99.90
8152;DHT22;4117;53.622;9.958;2022-12-07T07:16:27;1.80;99.90
8152;DHT22;4117;53.622;9.958;2022-12-07T07:18:54;1.80;99.90
8152;DHT22;4117;53.622;9.958;2022-12-07T07:21:22;1.80;99.90
8152;DHT22;4117;53.622;9.958;2022-12-07T07:23:50;1.80;99.90
8152;DHT22;4117;53.622;9.958;2022-12-07T07:26:17;1.80;99.90
8152;DHT22;4117;53.622;9.958;2022-12-07T07:28:44;1.80;99.90
8152;DHT22;4117;53.622;9.958;2022-12-07T07:31:11;1.80;99.90
8152;DHT22;4117;53.622;9.958;2022-12-07T07:33:38;1.80;99.90
8152;DHT22;4117;53.622;9.958;2022-12-07T07:36:05;1.80;99.90
8152;DHT22;4117;53.622;9.958;2022-12-07T07:38:32;1.90;99.90
8152;DHT22;4117;53.622;9.958;2022-12-07T07:41:01;1.90;99.90
8152;DHT22;4117;53.622;9.958;2022-12-07T07:43:28;1.90;99.90
8152;DHT22;4117;53.622;9.958;2022-12-07T07:45:54;1.90;99.90
8152;DHT22;4117;53.622;9.958;2022-12-07T07:48:21;1.90;99.90
8152;DHT22;4117;53.622;9.958;2022-12-07T07:50:50;1.90;99.90
8152;DHT22;4117;53.622;9.958;2022-12-07T07:53:17;1.90;99.90
8152;DHT22;4117;53.622;9.958;2022-12-07T07:55:50;1.90;99.90
8152;DHT22;4117;53.622;9.958;2022-12-07T07:58:18;2.00;99.90
8152;DHT22;4117;53.622;9.958;2022-12-07T08:00:45;1.90;99.90
8152;DHT22;4117;53.622;9.958;2022-12-07T08:03:12;2.00;99.90
8152;DHT22;4117;53.622;9.958;2022-12-07T08:05:39;2.00;99.90
8152;DHT22;4117;53.622;9.958;2022-12-07T08:08:06;2.00;99.90
8152;DHT22;4117;53.622;9.958;2022-12-07T08:10:33;2.00;99.90
8152;DHT22;4117;53.622;9.958;2022-12-07T08:13:01;2.00;99.90
8152;DHT22;4117;53.622;9.958;2022-12-07T08:15:43;2.00;99.90
8152;DHT22;4117;53.622;9.958;2022-12-07T08:18:11;2.00;99.90
8152;DHT22;4117;53.622;9.958;2022-12-07T08:20:39;2.00;99.90
8152;DHT22;4117;53.622;9.958;2022-12-07T08:23:07;2.00;99.90
8152;DHT22;4117;53.622;9.958;2022-12-07T08:25:34;2.10;99.90
8152;DHT22;4117;53.622;9.958;2022-12-07T08:28:01;2.10;99.90
8152;DHT22;4117;53.622;9.958;2022-12-07T08:30:29;2.10;99.90
8152;DHT22;4117;53.622;9.958;2022-12-07T08:32:57;2.10;99.90
8152;DHT22;4117;53.622;9.958;2022-12-07T08:35:25;2.10;99.90
8152;DHT22;4117;53.622;9.958;2022-12-07T08:37:52;2.10;99.90
8152;DHT22;4117;53.622;9.958;2022-12-07T08:40:19;2.20;99.90
8152;DHT22;4117;53.622;9.958;2022-12-07T08:42:49;2.20;99.90
8152;DHT22;4117;53.622;9.958;2022-12-07T08:45:17;2.20;99.90
8152;DHT22;4117;53.622;9.958;2022-12-07T08:47:48;2.20;99.90
8152;DHT22;4117;53.622;9.958;2022-12-07T08:50:17;2.20;99.90
8152;DHT22;4117;53.622;9.958;2022-12-07T08:52:48;2.20;99.90
8152;DHT22;4117;53.622;9.958;2022-12-07T08:55:16;2.20;99.90
8152;DHT22;4117;53.622;9.958;2022-12-07T08:57:43;2.30;99.90
8152;DHT22;4117;53.622;9.958;2022-12-07T09:00:11;2.30;99.90
8152;DHT22;4117;53.622;9.958;2022-12-07T09:02:38;2.30;99.90
8152;DHT22;4117;53.622;9.958;2022-12-07T09:05:06;2.30;99.90
8152;DHT22;4117;53.622;9.958;2022-12-07T09:07:34;2.30;99.90
8152;DHT22;4117;53.622;9.958;2022-12-07T09:10:02;2.30;99.90
8152;DHT22;4117;53.622;9.958;2022-12-07T09:12:29;2.40;99.90
8152;DHT22;4117;53.622;9.958;2022-12-07T09:14:56;2.40;99.90
8152;DHT22;4117;53.622;9.958;2022-12-07T09:17:23;2.40;99.90
8152;DHT22;4117;53.622;9.958;2022-12-07T09:19:50;2.50;99.90
8152;DHT22;4117;53.622;9.958;2022-12-07T09:22:17;2.50;99.90
8152;DHT22;4117;53.622;9.958;2022-12-07T09:24:46;2.50;99.90
8152;DHT22;4117;53.622;9.958;2022-12-07T09:27:13;2.60;99.90
8152;DHT22;4117;53.622;9.958;2022-12-07T09:29:39;2.60;99.90
8152;DHT22;4117;53.622;9.958;2022-12-07T09:32:06;2.60;99.90
8152;DHT22;4117;53.622;9.958;2022-12-07T09:34:33;2.60;99.90
8152;DHT22;4117;53.622;9.958;2022-12-07T09:37:01;2.70;99.90
8152;DHT22;4117;53.622;9.958;2022-12-07T09:39:28;2.70;99.90
8152;DHT22;4117;53.622;9.958;2022-12-07T09:41:57;2.70;99.90
8152;DHT22;4117;53.622;9.958;2022-12-07T09:44:26;2.70;99.90
8152;DHT22;4117;53.622;9.958;2022-12-07T09:46:54;2.80;99.90
8152;DHT22;4117;53.622;9.958;2022-12-07T09:49:23;2.80;99.90
8152;DHT22;4117;53.622;9.958;2022-12-07T09:52:00;2.80;99.90
8152;DHT22;4117;53.622;9.958;2022-12-07T09:54:28;2.80;99.90
8152;DHT22;4117;53.622;9.958;2022-12-07T09:56:58;2.80;99.90
8152;DHT22;4117;53.622;9.958;2022-12-07T09:59:25;2.90;99.90
8152;DHT22;4117;53.622;9.958;2022-12-07T10:01:52;2.90;99.90
8152;DHT22;4117;53.622;9.958;2022-12-07T10:04:21;2.90;99.90
8152;DHT22;4117;53.622;9.958;2022-12-07T10:06:48;2.90;99.90
8152;DHT22;4117;53.622;9.958;2022-12-07T10:09:17;2.90;99.90
8152;DHT22;4117;53.622;9.958;2022-12-07T10:12:04;3.00;99.90
8152;DHT22;4117;53.622;9.958;2022-12-07T10:14:32;3.00;99.90
8152;DHT22;4117;53.622;9.958;2022-12-07T10:17:00;3.00;99.90
8152;DHT22;4117;53.622;9.958;2022-12-07T10:19:29;3.00;99.90
8152;DHT22;4117;53.622;9.958;2022-12-07T10:22:02;3.00;99.90
8152;DHT22;4117;53.622;9.958;2022-12-07T10:24:30;3.10;99.90
8152;DHT22;4117;53.622;9.958;2022-12-07T10:26:57;3.10;99.90
8152;DHT22;4117;53.622;9.958;2022-12-07T10:29:29;3.10;99.90
8152;DHT22;4117;53.622;9.958;2022-12-07T10:31:58;3.10;99.90
8152;DHT22;4117;53.622;9.958;2022-12-07T10:34:28;3.10;99.90
8152;DHT22;4117;53.622;9.958;2022-12-07T10:37:13;3.20;99.90
8152;DHT22;4117;53.622;9.958;2022-12-07T10:39:42;3.20;99.90
8152;DHT22;4117;53.622;9.958;2022-12-07T10:42:16;3.20;99.90
8152;DHT22;4117;53.622;9.958;2022-12-07T10:44:45;3.20;99.90
8152;DHT22;4117;53.622;9.958;2022-12-07T10:47:29;3.20;99.90
8152;DHT22;4117;53.622;9.958;2022-12-07T10:50:17;3.30;99.90
8152;DHT22;4117;53.622;9.958;2022-12-07T10:52:59;3.30;99.90
8152;DHT22;4117;53.622;9.958;2022-12-07T10:55:36;3.30;99.90
8152;DHT22;4117;53.622;9.958;2022-12-07T10:58:21;3.30;99.90
8152;DHT22;4117;53.622;9.958;2022-12-07T11:01:00;3.30;99.90
8152;DHT22;4117;53.622;9.958;2022-12-07T11:06:43;3.40;99.90
8152;DHT22;4117;53.622;9.958;2022-12-07T11:09:29;3.40;99.90
8152;DHT22;4117;53.622;9.958;2022-12-07T11:12:05;3.40;99.90
8152;DHT22;4117;53.622;9.958;2022-12-07T11:14:43;3.40;99.90
8152;DHT22;4117;53.622;9.958;2022-12-07T11:17:17;3.40;99.90
8152;DHT22;4117;53.622;9.958;2022-12-07T11:20:01;3.40;99.90
8152;DHT22;4117;53.622;9.958;2022-12-07T11:22:34;3.40;99.90
8152;DHT22;4117;53.622;9.958;2022-12-07T11:25:19;3.40;99.90
8152;DHT22;4117;53.622;9.958;2022-12-07T11:28:00;3.40;99.90
8152;DHT22;4117;53.622;9.958;2022-12-07T11:30:34;3.40;97.80
8152;DHT22;4117;53.622;9.958;2022-12-07T11:33:20;3.50;93.70
8152;DHT22;4117;53.622;9.958;2022-12-07T11:35:57;3.50;92.50
8152;DHT22;4117;53.622;9.958;2022-12-07T11:38:36;3.50;92.40
8152;DHT22;4117;53.622;9.958;2022-12-07T11:41:05;3.50;92.50
8152;DHT22;4117;53.622;9.958;2022-12-07T11:43:54;3.50;92.50
8152;DHT22;4117;53.622;9.958;2022-12-07T11:46:25;3.50;92.50
8152;DHT22;4117;53.622;9.958;2022-12-07T11:49:01;3.50;86.70
8152;DHT22;4117;53.622;9.958;2022-12-07T11:51:30;3.60;82.70
8152;DHT22;4117;53.622;9.958;2022-12-07T11:54:02;3.60;74.60
8152;DHT22;4117;53.622;9.958;2022-12-07T11:56:35;3.60;70.80
8152;DHT22;4117;53.622;9.958;2022-12-07T11:59:09;3.70;70.70
8152;DHT22;4117;53.622;9.958;2022-12-07T12:01:47;3.60;72.40
8152;DHT22;4117;53.622;9.958;2022-12-07T12:04:27;3.70;71.70
8152;DHT22;4117;53.622;9.958;2022-12-07T12:06:55;3.70;70.70
8152;DHT22;4117;53.622;9.958;2022-12-07T12:09:27;3.70;68.40
8152;DHT22;4117;53.622;9.958;2022-12-07T12:12:16;3.70;63.60
8152;DHT22;4117;53.622;9.958;2022-12-07T12:14:57;3.80;56.20
8152;DHT22;4117;53.622;9.958;2022-12-07T12:17:56;3.80;56.50
8152;DHT22;4117;53.622;9.958;2022-12-07T12:20:32;3.80;49.90
8152;DHT22;4117;53.622;9.958;2022-12-07T12:23:06;3.80;46.00
8152;DHT22;4117;53.622;9.958;2022-12-07T12:25:40;3.70;48.90
8152;DHT22;4117;53.622;9.958;2022-12-07T12:28:20;3.80;47.40
8152;DHT22;4117;53.622;9.958;2022-12-07T12:31:10;3.70;50.00
8152;DHT22;4117;53.622;9.958;2022-12-07T12:33:42;3.80;43.40
8152;DHT22;4117;53.622;9.958;2022-12-07T12:36:23;3.70;43.10
8152;DHT22;4117;53.622;9.958;2022-12-07T12:39:08;3.80;40.50
8152;DHT22;4117;53.622;9.958;2022-12-07T12:41:54;3.80;36.60
8152;DHT22;4117;53.622;9.958;2022-12-07T12:47:42;3.80;30.40
8152;DHT22;4117;53.622;9.958;2022-12-07T12:50:19;3.80;33.80
8152;DHT22;4117;53.622;9.958;2022-12-07T12:53:16;3.80;32.90
8152;DHT22;4117;53.622;9.958;2022-12-07T12:56:22;3.80;30.90
8152;DHT22;4117;53.622;9.958;2022-12-07T12:59:24;3.80;29.70
8152;DHT22;4117;53.622;9.958;2022-12-07T13:01:54;3.70;26.30
8152;DHT22;4117;53.622;9.958;2022-12-07T13:04:36;3.70;23.20
8152;DHT22;4117;53.622;9.958;2022-12-07T13:07:13;3.60;15.50
8152;DHT22;4117;53.622;9.958;2022-12-07T13:10:01;3.60;12.70
8152;DHT22;4117;53.622;9.958;2022-12-07T13:12:29;3.60;12.80
8152;DHT22;4117;53.622;9.958;2022-12-07T13:14:58;3.60;12.80
8152;DHT22;4117;53.622;9.958;2022-12-07T13:17:57;3.60;12.80
8152;DHT22;4117;53.622;9.958;2022-12-07T13:20:47;3.60;11.80
8152;DHT22;4117;53.622;9.958;2022-12-07T13:23:18;3.70;13.20
8152;DHT22;4117;53.622;9.958;2022-12-07T13:25:54;3.70;10.00
8152;DHT22;4117;53.622;9.958;2022-12-07T13:28:22;3.70;9.80
8152;DHT22;4117;53.622;9.958;2022-12-07T13:31:10;3.80;8.80
8152;DHT22;4117;53.622;9.958;2022-12-07T13:33:38;3.80;12.40
8152;DHT22;4117;53.622;9.958;2022-12-07T13:36:16;3.80;12.60
8152;DHT22;4117;53.622;9.958;2022-12-07T13:38:50;3.80;12.90
8152;DHT22;4117;53.622;9.958;2022-12-07T13:41:20;3.80;11.90
8152;DHT22;4117;53.622;9.958;2022-12-07T13:43:53;3.80;9.10
8152;DHT22;4117;53.622;9.958;2022-12-07T13:46:27;3.70;4.00
8152;DHT22;4117;53.622;9.958;2022-12-07T13:48:57;3.70;2.10
8152;DHT22;4117;53.622;9.958;2022-12-07T13:51:26;3.70;2.10
8152;DHT22;4117;53.622;9.958;2022-12-07T13:53:56;3.70;3.20
8152;DHT22;4117;53.622;9.958;2022-12-07T13:56:31;3.70;1.20
8152;DHT22;4117;53.622;9.958;2022-12-07T13:58:59;3.60;2.00
8152;DHT22;4117;53.622;9.958;2022-12-07T14:01:26;3.60;1.00
8152;DHT22;4117;53.622;9.958;2022-12-07T14:03:54;3.50;1.00
8152;DHT22;4117;53.622;9.958;2022-12-07T14:06:26;3.50;1.00
8152;DHT22;4117;53.622;9.958;2022-12-07T14:09:07;3.50;1.00
8152;DHT22;4117;53.622;9.958;2022-12-07T14:11:37;3.50;1.00
8152;DHT22;4117;53.622;9.958;2022-12-07T14:14:05;3.40;1.00
8152;DHT22;4117;53.622;9.958;2022-12-07T14:16:33;3.40;1.00
8152;DHT22;4117;53.622;9.958;2022-12-07T14:19:03;3.40;1.00
8152;DHT22;4117;53.622;9.958;2022-12-07T14:21:32;3.40;1.00
8152;DHT22;4117;53.622;9.958;2022-12-07T14:24:18;3.40;1.00
8152;DHT22;4117;53.622;9.958;2022-12-07T14:26:48;3.30;1.00
8152;DHT22;4117;53.622;9.958;2022-12-07T14:29:20;3.30;1.00
8152;DHT22;4117;53.622;9.958;2022-12-07T14:31:47;3.30;1.00
8152;DHT22;4117;53.622;9.958;2022-12-07T14:34:14;3.30;1.00
8152;DHT22;4117;53.622;9.958;2022-12-07T14:36:41;3.20;1.00
8152;DHT22;4117;53.622;9.958;2022-12-07T14:39:08;3.20;1.00
8152;DHT22;4117;53.622;9.958;2022-12-07T14:41:35;3.20;1.00
8152;DHT22;4117;53.622;9.958;2022-12-07T14:44:21;3.20;1.00
8152;DHT22;4117;53.622;9.958;2022-12-07T14:46:49;3.20;1.00
8152;DHT22;4117;53.622;9.958;2022-12-07T14:49:16;3.10;1.00
8152;DHT22;4117;53.622;9.958;2022-12-07T14:51:45;3.10;1.00
8152;DHT22;4117;53.622;9.958;2022-12-07T14:54:16;3.10;1.00
8152;DHT22;4117;53.622;9.958;2022-12-07T14:56:43;3.10;1.00
8152;DHT22;4117;53.622;9.958;2022-12-07T14:59:11;3.00;1.00
8152;DHT22;4117;53.622;9.958;2022-12-07T15:01:40;3.00;1.00
8152;DHT22;4117;53.622;9.958;2022-12-07T15:04:07;3.00;1.60
8152;DHT22;4117;53.622;9.958;2022-12-07T15:06:34;2.90;1.00
8152;DHT22;4117;53.622;9.958;2022-12-07T15:09:01;2.90;1.00
8152;DHT22;4117;53.622;9.958;2022-12-07T15:11:28;2.90;1.00
8152;DHT22;4117;53.622;9.958;2022-12-07T15:13:55;2.80;1.50
8152;DHT22;4117;53.622;9.958;2022-12-07T15:16:40;2.80;1.00
8152;DHT22;4117;53.622;9.958;2022-12-07T15:19:12;2.70;1.00
8152;DHT22;4117;53.622;9.958;2022-12-07T15:21:40;2.60;1.00
8152;DHT22;4117;53.622;9.958;2022-12-07T15:24:08;2.60;1.00
8152;DHT22;4117;53.622;9.958;2022-12-07T15:26:35;2.60;1.00
8152;DHT22;4117;53.622;9.958;2022-12-07T15:29:03;2.60;1.00
8152;DHT22;4117;53.622;9.958;2022-12-07T15:31:30;2.60;1.00
8152;DHT22;4117;53.622;9.958;2022-12-07T15:33:58;2.60;1.00
8152;DHT22;4117;53.622;9.958;2022-12-07T15:36:27;2.50;1.00
8152;DHT22;4117;53.622;9.958;2022-12-07T15:38:55;2.50;1.00
8152;DHT22;4117;53.622;9.958;2022-12-07T15:41:22;2.60;1.30
8152;DHT22;4117;53.622;9.958;2022-12-07T15:43:49;2.50;1.00
8152;DHT22;4117;53.622;9.958;2022-12-07T15:46:35;2.40;1.00
8152;DHT22;4117;53.622;9.958;2022-12-07T15:49:06;2.30;1.00
8152;DHT22;4117;53.622;9.958;2022-12-07T15:51:35;2.40;1.00
8152;DHT22;4117;53.622;9.958;2022-12-07T15:54:02;2.30;1.00
8152;DHT22;4117;53.622;9.958;2022-12-07T15:56:28;2.30;1.00
8152;DHT22;4117;53.622;9.958;2022-12-07T15:58:56;2.30;1.00
8152;DHT22;4117;53.622;9.958;2022-12-07T16:01:23;2.30;1.00
8152;DHT22;4117;53.622;9.958;2022-12-07T16:03:50;2.20;1.00
8152;DHT22;4117;53.622;9.958;2022-12-07T16:06:18;2.20;1.10
8152;DHT22;4117;53.622;9.958;2022-12-07T16:08:46;2.20;1.20
8152;DHT22;4117;53.622;9.958;2022-12-07T16:11:13;2.20;3.90
8152;DHT22;4117;53.622;9.958;2022-12-07T16:13:40;2.10;4.60
8152;DHT22;4117;53.622;9.958;2022-12-07T16:16:09;2.10;1.00
8152;DHT22;4117;53.622;9.958;2022-12-07T16:18:36;2.00;5.60
8152;DHT22;4117;53.622;9.958;2022-12-07T16:21:06;2.00;7.80
8152;DHT22;4117;53.622;9.958;2022-12-07T16:23:35;1.90;9.00
8152;DHT22;4117;53.622;9.958;2022-12-07T16:26:06;1.90;9.10
8152;DHT22;4117;53.622;9.958;2022-12-07T16:28:33;1.90;8.90
8152;DHT22;4117;53.622;9.958;2022-12-07T16:31:02;1.90;5.60
8152;DHT22;4117;53.622;9.958;2022-12-07T16:33:29;1.80;11.50
8152;DHT22;4117;53.622;9.958;2022-12-07T16:35:58;1.70;11.60
8152;DHT22;4117;53.622;9.958;2022-12-07T16:38:25;1.70;9.80
8152;DHT22;4117;53.622;9.958;2022-12-07T16:40:53;1.70;8.00
8152;DHT22;4117;53.622;9.958;2022-12-07T16:43:20;1.60;11.50
8152;DHT22;4117;53.622;9.958;2022-12-07T16:45:47;1.60;11.40
8152;DHT22;4117;53.622;9.958;2022-12-07T16:48:15;1.50;11.70
8152;DHT22;4117;53.622;9.958;2022-12-07T16:50:43;1.50;11.50
8152;DHT22;4117;53.622;9.958;2022-12-07T16:53:10;1.40;11.30